Pagrindinis puslapis
METAR-TAF:

METAR-TAF

Oro uostai :

Vardė, Norvegija

platuma: 70-21N, ilguma: 031-03E, Aukštis: 12 m

Dabartinis oras

Ataskaita buvo paskelbta 39 minutes, ne 08:50 UTC
Vėjas 13 kt iš Pietų/Pietryčių
Temperatūra 1°C
Drėgmė 100%
Slėgis 1003 hPa
Matomumas: 7000 m
Su prošvaistėmis ne aukštis 600 ft
Apsiniaukę ne aukštis 1100 ft
lietus

METAR: ENSS 070850Z 15013KT 7000 SHRA BKN006 OVC011 01/01 Q1003 RMK WIND 0500FT 19011KT

Laikas: 10:29 (09:29 UTC)

Prognozė

Ataskaita buvo paskelbta 1 valandą ir 29 minutes, ne 08:00 UTC
Prognozė galioja nuo 07 metu 09 UTC su 07 metu 18 UTC
Vėjas 12 kt iš Pietų
Matomumas 10 km arba daugiau
Išsisklaidę debesys ne aukštis 600 ft
Su prošvaistėmis ne aukštis 1200 ft
Tapsmas
nuo 07 metu 09 UTC su 07 metu 13 UTC
Vėjas 8 kt iš Vakarų/Pietvakarių
Laikinai
nuo 07 metu 09 UTC su 07 metu 18 UTC
Su prošvaistėmis ne aukštis 600 ft

TAF: ENSS 070800Z 0709/0718 17012KT 9999 SCT006 BKN012 BECMG 0709/0713 25008KT TEMPO 0709/0718 BKN006

Orai ataskaitas ir orų prognozės (METAR, TAF).

turimą stotys yra geltonos ir raudonos taškus žemėlapyje.

Perkelti pele per norėdami pamatyti stoties vardą.

Tada spustelėkite, norėdami matyti oro stebėjimo ir prognozės.

Norėdami pakeisti žemėlapį: spustelėkite ant žalios mygtukų su juodo kryžiaus žemyn,; žalią mygtuką su brūkšneliu, jei norite nutolinti; arba žalių rodyklių gretimoms žemėlapius.


METAR-TAF: